sensor_id;sensor_type;location;lat;lon;timestamp;pressure;altitude;pressure_sealevel;temperature;humidity
24962;BME280;12992;50.884;13.668;2023-08-17T00:00:38;97654.53;;;18.51;100.00
24962;BME280;12992;50.884;13.668;2023-08-17T00:03:03;97656.16;;;18.52;100.00
24962;BME280;12992;50.884;13.668;2023-08-17T00:05:28;97653.53;;;18.60;100.00
24962;BME280;12992;50.884;13.668;2023-08-17T00:07:53;97657.13;;;18.61;100.00
24962;BME280;12992;50.884;13.668;2023-08-17T00:10:19;97642.69;;;18.69;100.00
24962;BME280;12992;50.884;13.668;2023-08-17T00:12:44;97633.38;;;18.65;100.00
24962;BME280;12992;50.884;13.668;2023-08-17T00:15:09;97629.53;;;18.61;100.00
24962;BME280;12992;50.884;13.668;2023-08-17T00:17:34;97626.50;;;18.44;100.00
24962;BME280;12992;50.884;13.668;2023-08-17T00:20:00;97609.81;;;18.35;100.00
24962;BME280;12992;50.884;13.668;2023-08-17T00:22:25;97618.75;;;18.27;100.00
24962;BME280;12992;50.884;13.668;2023-08-17T00:24:50;97614.03;;;18.27;100.00
24962;BME280;12992;50.884;13.668;2023-08-17T00:27:15;97620.69;;;18.26;100.00
24962;BME280;12992;50.884;13.668;2023-08-17T00:29:42;97613.53;;;18.25;100.00
24962;BME280;12992;50.884;13.668;2023-08-17T00:32:07;97606.75;;;18.18;100.00
24962;BME280;12992;50.884;13.668;2023-08-17T00:34:34;97593.13;;;18.07;100.00
24962;BME280;12992;50.884;13.668;2023-08-17T00:37:00;97587.31;;;18.09;100.00
24962;BME280;12992;50.884;13.668;2023-08-17T00:39:25;97571.22;;;17.97;100.00
24962;BME280;12992;50.884;13.668;2023-08-17T00:41:51;97579.78;;;17.96;100.00
24962;BME280;12992;50.884;13.668;2023-08-17T00:44:16;97578.47;;;18.12;100.00
24962;BME280;12992;50.884;13.668;2023-08-17T00:46:41;97570.56;;;18.05;100.00
24962;BME280;12992;50.884;13.668;2023-08-17T00:49:07;97578.06;;;18.00;100.00
24962;BME280;12992;50.884;13.668;2023-08-17T00:51:32;97578.06;;;18.00;100.00
24962;BME280;12992;50.884;13.668;2023-08-17T00:53:58;97576.22;;;17.95;100.00
24962;BME280;12992;50.884;13.668;2023-08-17T00:56:24;97567.56;;;17.83;100.00
24962;BME280;12992;50.884;13.668;2023-08-17T00:58:50;97566.16;;;17.86;100.00
24962;BME280;12992;50.884;13.668;2023-08-17T01:01:15;97572.09;;;17.74;100.00
24962;BME280;12992;50.884;13.668;2023-08-17T01:03:41;97565.94;;;17.58;100.00
24962;BME280;12992;50.884;13.668;2023-08-17T01:06:07;97574.84;;;17.50;100.00
24962;BME280;12992;50.884;13.668;2023-08-17T01:08:32;97578.22;;;17.66;100.00
24962;BME280;12992;50.884;13.668;2023-08-17T01:16:05;97594.38;;;17.77;100.00
24962;BME280;12992;50.884;13.668;2023-08-17T01:18:35;97602.56;;;17.59;100.00
24962;BME280;12992;50.884;13.668;2023-08-17T01:21:02;97606.13;;;17.59;100.00
24962;BME280;12992;50.884;13.668;2023-08-17T01:23:29;97604.19;;;17.60;100.00
24962;BME280;12992;50.884;13.668;2023-08-17T01:25:54;97595.13;;;17.59;100.00
24962;BME280;12992;50.884;13.668;2023-08-17T01:28:24;97592.06;;;17.61;100.00
24962;BME280;12992;50.884;13.668;2023-08-17T01:30:51;97592.81;;;17.66;100.00
24962;BME280;12992;50.884;13.668;2023-08-17T01:33:20;97584.47;;;17.76;100.00
24962;BME280;12992;50.884;13.668;2023-08-17T01:38:26;97587.22;;;17.76;100.00
24962;BME280;12992;50.884;13.668;2023-08-17T01:40:54;97583.72;;;17.66;100.00
24962;BME280;12992;50.884;13.668;2023-08-17T01:43:20;97596.25;;;17.58;100.00
24962;BME280;12992;50.884;13.668;2023-08-17T01:45:45;97594.19;;;17.45;100.00
24962;BME280;12992;50.884;13.668;2023-08-17T01:48:10;97597.34;;;17.33;100.00
24962;BME280;12992;50.884;13.668;2023-08-17T01:50:36;97607.63;;;17.22;100.00
24962;BME280;12992;50.884;13.668;2023-08-17T01:53:01;97609.56;;;17.22;100.00
24962;BME280;12992;50.884;13.668;2023-08-17T01:55:26;97607.63;;;17.22;100.00
24962;BME280;12992;50.884;13.668;2023-08-17T01:57:52;97600.22;;;17.47;100.00
24962;BME280;12992;50.884;13.668;2023-08-17T02:00:17;97593.53;;;17.53;100.00
24962;BME280;12992;50.884;13.668;2023-08-17T02:02:42;97590.25;;;17.51;100.00
24962;BME280;12992;50.884;13.668;2023-08-17T02:05:08;97589.66;;;17.54;100.00
24962;BME280;12992;50.884;13.668;2023-08-17T02:07:33;97590.78;;;17.53;100.00
24962;BME280;12992;50.884;13.668;2023-08-17T02:09:58;97593.06;;;17.46;100.00
24962;BME280;12992;50.884;13.668;2023-08-17T02:12:24;97598.41;;;17.61;100.00
24962;BME280;12992;50.884;13.668;2023-08-17T02:14:50;97601.78;;;17.53;100.00
24962;BME280;12992;50.884;13.668;2023-08-17T02:17:15;97598.44;;;17.56;100.00
24962;BME280;12992;50.884;13.668;2023-08-17T02:19:44;97601.78;;;17.53;100.00
24962;BME280;12992;50.884;13.668;2023-08-17T02:22:10;97600.72;;;17.49;100.00
24962;BME280;12992;50.884;13.668;2023-08-17T02:24:35;97600.50;;;17.45;100.00
24962;BME280;12992;50.884;13.668;2023-08-17T02:27:01;97606.59;;;17.42;100.00
24962;BME280;12992;50.884;13.668;2023-08-17T02:29:26;97617.38;;;17.39;100.00
24962;BME280;12992;50.884;13.668;2023-08-17T02:31:51;97615.22;;;17.36;100.00
24962;BME280;12992;50.884;13.668;2023-08-17T02:34:16;97619.72;;;17.26;100.00
24962;BME280;12992;50.884;13.668;2023-08-17T02:36:42;97620.56;;;17.22;100.00
24962;BME280;12992;50.884;13.668;2023-08-17T02:39:07;97614.38;;;17.11;100.00
24962;BME280;12992;50.884;13.668;2023-08-17T02:41:32;97618.03;;;17.02;100.00
24962;BME280;12992;50.884;13.668;2023-08-17T02:43:58;97620.50;;;17.03;100.00
24962;BME280;12992;50.884;13.668;2023-08-17T02:46:23;97620.28;;;16.99;100.00
24962;BME280;12992;50.884;13.668;2023-08-17T02:48:48;97624.66;;;17.01;100.00
24962;BME280;12992;50.884;13.668;2023-08-17T02:51:14;97629.72;;;17.17;100.00
24962;BME280;12992;50.884;13.668;2023-08-17T02:53:40;97628.28;;;17.25;100.00
24962;BME280;12992;50.884;13.668;2023-08-17T02:56:05;97626.84;;;17.27;100.00
24962;BME280;12992;50.884;13.668;2023-08-17T02:58:30;97622.44;;;17.32;100.00
24962;BME280;12992;50.884;13.668;2023-08-17T03:00:56;97622.47;;;17.26;100.00
24962;BME280;12992;50.884;13.668;2023-08-17T03:03:21;97625.69;;;17.34;100.00
24962;BME280;12992;50.884;13.668;2023-08-17T03:05:46;97618.31;;;17.29;100.00
24962;BME280;12992;50.884;13.668;2023-08-17T03:08:11;97612.09;;;17.18;100.00
24962;BME280;12992;50.884;13.668;2023-08-17T03:10:37;97607.09;;;17.20;100.00
24962;BME280;12992;50.884;13.668;2023-08-17T03:13:02;97607.09;;;17.20;100.00
24962;BME280;12992;50.884;13.668;2023-08-17T03:15:27;97614.81;;;17.23;100.00
24962;BME280;12992;50.884;13.668;2023-08-17T03:17:53;97611.50;;;17.21;100.00
24962;BME280;12992;50.884;13.668;2023-08-17T03:20:18;97613.34;;;17.02;100.00
24962;BME280;12992;50.884;13.668;2023-08-17T03:22:43;97616.09;;;17.02;100.00
24962;BME280;12992;50.884;13.668;2023-08-17T03:25:08;97620.75;;;17.07;100.00
24962;BME280;12992;50.884;13.668;2023-08-17T03:27:34;97623.81;;;17.05;100.00
24962;BME280;12992;50.884;13.668;2023-08-17T03:30:00;97635.25;;;17.12;100.00
24962;BME280;12992;50.884;13.668;2023-08-17T03:32:25;97630.50;;;17.23;100.00
24962;BME280;12992;50.884;13.668;2023-08-17T03:34:51;97626.44;;;17.15;100.00
24962;BME280;12992;50.884;13.668;2023-08-17T03:37:16;97621.50;;;17.12;100.00
24962;BME280;12992;50.884;13.668;2023-08-17T03:39:42;97613.84;;;17.09;100.00
24962;BME280;12992;50.884;13.668;2023-08-17T03:42:07;97618.75;;;17.12;100.00
24962;BME280;12992;50.884;13.668;2023-08-17T03:44:33;97614.06;;;17.13;100.00
24962;BME280;12992;50.884;13.668;2023-08-17T03:46:58;97611.88;;;17.15;100.00
24962;BME280;12992;50.884;13.668;2023-08-17T03:49:23;97615.16;;;17.17;100.00
24962;BME280;12992;50.884;13.668;2023-08-17T03:51:48;97625.03;;;17.18;100.00
24962;BME280;12992;50.884;13.668;2023-08-17T03:54:14;97634.34;;;17.22;100.00
24962;BME280;12992;50.884;13.668;2023-08-17T03:56:40;97635.06;;;17.33;100.00
24962;BME280;12992;50.884;13.668;2023-08-17T03:59:05;97628.16;;;17.35;100.00
24962;BME280;12992;50.884;13.668;2023-08-17T04:01:30;97626.22;;;17.36;100.00
24962;BME280;12992;50.884;13.668;2023-08-17T04:03:56;97628.38;;;17.39;100.00
24962;BME280;12992;50.884;13.668;2023-08-17T04:06:21;97626.69;;;17.43;100.00
24962;BME280;12992;50.884;13.668;2023-08-17T04:08:47;97616.84;;;17.37;100.00
24962;BME280;12992;50.884;13.668;2023-08-17T04:11:13;97613.56;;;17.35;100.00
24962;BME280;12992;50.884;13.668;2023-08-17T04:13:39;97619.09;;;17.35;100.00
24962;BME280;12992;50.884;13.668;2023-08-17T04:16:04;97625.09;;;17.37;100.00
24962;BME280;12992;50.884;13.668;2023-08-17T04:18:29;97628.16;;;17.35;100.00
24962;BME280;12992;50.884;13.668;2023-08-17T04:20:55;97633.31;;;17.42;100.00
24962;BME280;12992;50.884;13.668;2023-08-17T04:23:20;97631.22;;;17.34;100.00
24962;BME280;12992;50.884;13.668;2023-08-17T04:25:46;97627.94;;;17.32;100.00
24962;BME280;12992;50.884;13.668;2023-08-17T04:28:11;97623.47;;;17.36;100.00
24962;BME280;12992;50.884;13.668;2023-08-17T04:30:37;97632.78;;;17.40;100.00
24962;BME280;12992;50.884;13.668;2023-08-17T04:33:02;97633.31;;;17.42;100.00
24962;BME280;12992;50.884;13.668;2023-08-17T04:35:28;97629.69;;;17.46;100.00
24962;BME280;12992;50.884;13.668;2023-08-17T04:37:53;97631.09;;;17.44;100.00
24962;BME280;12992;50.884;13.668;2023-08-17T04:40:18;97656.06;;;17.52;100.00
24962;BME280;12992;50.884;13.668;2023-08-17T04:42:44;97657.09;;;17.56;100.00
24962;BME280;12992;50.884;13.668;2023-08-17T04:45:10;97656.22;;;17.61;100.00
24962;BME280;12992;50.884;13.668;2023-08-17T04:47:39;97644.31;;;17.71;100.00
24962;BME280;12992;50.884;13.668;2023-08-17T04:50:05;97639.00;;;17.74;100.00
24962;BME280;12992;50.884;13.668;2023-08-17T04:52:31;97639.25;;;17.78;100.00
24962;BME280;12992;50.884;13.668;2023-08-17T04:54:56;97644.13;;;17.86;100.00
24962;BME280;12992;50.884;13.668;2023-08-17T04:57:22;97644.84;;;17.92;100.00
24962;BME280;12992;50.884;13.668;2023-08-17T04:59:47;97645.91;;;17.96;100.00
24962;BME280;12992;50.884;13.668;2023-08-17T05:02:15;97652.41;;;18.05;100.00
24962;BME280;12992;50.884;13.668;2023-08-17T05:04:41;97656.75;;;18.11;100.00
24962;BME280;12992;50.884;13.668;2023-08-17T05:07:07;97666.44;;;18.27;100.00
24962;BME280;12992;50.884;13.668;2023-08-17T05:09:33;97670.84;;;18.47;100.00
24962;BME280;12992;50.884;13.668;2023-08-17T05:11:58;97668.66;;;18.63;100.00
24962;BME280;12992;50.884;13.668;2023-08-17T05:14:24;97655.47;;;18.79;100.00
24962;BME280;12992;50.884;13.668;2023-08-17T05:16:49;97650.34;;;18.91;100.00
24962;BME280;12992;50.884;13.668;2023-08-17T05:19:14;97658.88;;;19.08;100.00
24962;BME280;12992;50.884;13.668;2023-08-17T05:21:40;97662.47;;;19.22;100.00
24962;BME280;12992;50.884;13.668;2023-08-17T05:24:07;97649.59;;;19.18;100.00
24962;BME280;12992;50.884;13.668;2023-08-17T05:26:32;97646.13;;;19.26;100.00
24962;BME280;12992;50.884;13.668;2023-08-17T05:28:58;97646.91;;;19.59;100.00
24962;BME280;12992;50.884;13.668;2023-08-17T05:31:24;97649.56;;;20.05;100.00
24962;BME280;12992;50.884;13.668;2023-08-17T05:33:51;97654.72;;;20.34;100.00
24962;BME280;12992;50.884;13.668;2023-08-17T05:36:17;97661.75;;;20.41;100.00
24962;BME280;12992;50.884;13.668;2023-08-17T05:38:43;97670.38;;;20.39;100.00
24962;BME280;12992;50.884;13.668;2023-08-17T05:41:08;97676.44;;;20.41;100.00
24962;BME280;12992;50.884;13.668;2023-08-17T05:43:33;97668.53;;;20.48;100.00
24962;BME280;12992;50.884;13.668;2023-08-17T05:45:58;97661.03;;;20.62;100.00
24962;BME280;12992;50.884;13.668;2023-08-17T05:48:27;97663.94;;;20.80;100.00
24962;BME280;12992;50.884;13.668;2023-08-17T05:50:53;97664.94;;;20.84;100.00
24962;BME280;12992;50.884;13.668;2023-08-17T05:53:20;97673.31;;;20.92;100.00
24962;BME280;12992;50.884;13.668;2023-08-17T05:55:45;97669.59;;;20.97;100.00
24962;BME280;12992;50.884;13.668;2023-08-17T05:58:10;97665.88;;;21.02;100.00
24962;BME280;12992;50.884;13.668;2023-08-17T06:00:36;97663.91;;;21.02;100.00
24962;BME280;12992;50.884;13.668;2023-08-17T06:03:01;97665.69;;;20.98;100.00
24962;BME280;12992;50.884;13.668;2023-08-17T06:05:27;97657.50;;;20.93;100.00
24962;BME280;12992;50.884;13.668;2023-08-17T06:07:53;97658.91;;;21.04;100.00
24962;BME280;12992;50.884;13.668;2023-08-17T06:10:19;97661.53;;;21.09;100.00
24962;BME280;12992;50.884;13.668;2023-08-17T06:12:45;97678.97;;;21.10;100.00
24962;BME280;12992;50.884;13.668;2023-08-17T06:15:10;97690.09;;;21.18;100.00
24962;BME280;12992;50.884;13.668;2023-08-17T06:17:36;97684.31;;;21.29;100.00
24962;BME280;12992;50.884;13.668;2023-08-17T06:20:01;97685.56;;;21.45;100.00
24962;BME280;12992;50.884;13.668;2023-08-17T06:22:28;97685.94;;;21.52;100.00
24962;BME280;12992;50.884;13.668;2023-08-17T06:24:53;97689.69;;;21.47;100.00
24962;BME280;12992;50.884;13.668;2023-08-17T06:27:18;97690.59;;;21.65;100.00
24962;BME280;12992;50.884;13.668;2023-08-17T06:29:43;97688.94;;;21.64;100.00
24962;BME280;12992;50.884;13.668;2023-08-17T06:32:09;97699.69;;;21.57;100.00
24962;BME280;12992;50.884;13.668;2023-08-17T06:34:34;97699.56;;;21.71;100.00
24962;BME280;12992;50.884;13.668;2023-08-17T06:37:01;97699.88;;;21.69;100.00
24962;BME280;12992;50.884;13.668;2023-08-17T06:39:26;97700.94;;;21.51;100.00
24962;BME280;12992;50.884;13.668;2023-08-17T06:41:52;97695.66;;;21.18;100.00
24962;BME280;12992;50.884;13.668;2023-08-17T06:44:17;97692.31;;;21.08;100.00
24962;BME280;12992;50.884;13.668;2023-08-17T06:46:43;97688.66;;;20.99;100.00
24962;BME280;12992;50.884;13.668;2023-08-17T06:49:08;97687.59;;;21.08;100.00
24962;BME280;12992;50.884;13.668;2023-08-17T06:51:33;97686.34;;;21.14;100.00
24962;BME280;12992;50.884;13.668;2023-08-17T06:53:59;97688.16;;;21.19;100.00
24962;BME280;12992;50.884;13.668;2023-08-17T06:56:24;97691.25;;;21.17;100.00
24962;BME280;12992;50.884;13.668;2023-08-17T06:58:49;97677.66;;;21.07;100.00
24962;BME280;12992;50.884;13.668;2023-08-17T07:01:14;97678.63;;;21.11;100.00
24962;BME280;12992;50.884;13.668;2023-08-17T07:03:40;97680.66;;;21.19;100.00
24962;BME280;12992;50.884;13.668;2023-08-17T07:06:05;97677.28;;;21.23;100.00
24962;BME280;12992;50.884;13.668;2023-08-17T07:08:30;97672.00;;;21.12;100.00
24962;BME280;12992;50.884;13.668;2023-08-17T07:10:56;97675.44;;;21.18;100.00
24962;BME280;12992;50.884;13.668;2023-08-17T07:13:21;97682.81;;;21.23;100.00
24962;BME280;12992;50.884;13.668;2023-08-17T07:15:46;97686.50;;;21.32;100.00
24962;BME280;12992;50.884;13.668;2023-08-17T07:18:11;97685.88;;;21.43;100.00
24962;BME280;12992;50.884;13.668;2023-08-17T07:20:37;97689.84;;;21.51;100.00
24962;BME280;12992;50.884;13.668;2023-08-17T07:23:02;97684.69;;;21.58;100.00
24962;BME280;12992;50.884;13.668;2023-08-17T07:25:27;97681.63;;;21.68;100.00
24962;BME280;12992;50.884;13.668;2023-08-17T07:27:53;97682.13;;;21.70;100.00
24962;BME280;12992;50.884;13.668;2023-08-17T07:30:18;97687.66;;;21.70;100.00
24962;BME280;12992;50.884;13.668;2023-08-17T07:32:43;97693.50;;;21.60;100.00
24962;BME280;12992;50.884;13.668;2023-08-17T07:35:08;97699.41;;;21.67;100.00
24962;BME280;12992;50.884;13.668;2023-08-17T07:37:34;97704.72;;;21.95;100.00
24962;BME280;12992;50.884;13.668;2023-08-17T07:39:59;97704.41;;;22.36;100.00
24962;BME280;12992;50.884;13.668;2023-08-17T07:42:24;97708.19;;;22.66;100.00
24962;BME280;12992;50.884;13.668;2023-08-17T07:44:49;97697.25;;;22.70;100.00
24962;BME280;12992;50.884;13.668;2023-08-17T07:47:15;97704.75;;;22.52;100.00
24962;BME280;12992;50.884;13.668;2023-08-17T07:49:40;97705.19;;;22.19;100.00
24962;BME280;12992;50.884;13.668;2023-08-17T07:52:05;97695.53;;;22.17;100.00
24962;BME280;12992;50.884;13.668;2023-08-17T07:54:31;97692.16;;;22.28;100.00
24962;BME280;12992;50.884;13.668;2023-08-17T07:56:57;97681.56;;;22.56;100.00
24962;BME280;12992;50.884;13.668;2023-08-17T07:59:22;97677.56;;;22.88;100.00
24962;BME280;12992;50.884;13.668;2023-08-17T08:01:47;97675.03;;;23.30;100.00
24962;BME280;12992;50.884;13.668;2023-08-17T08:04:12;97667.31;;;23.44;100.00
24962;BME280;12992;50.884;13.668;2023-08-17T08:06:37;97667.47;;;24.04;100.00
24962;BME280;12992;50.884;13.668;2023-08-17T08:09:03;97659.25;;;24.37;100.00
24962;BME280;12992;50.884;13.668;2023-08-17T08:11:28;97650.19;;;24.48;100.00
24962;BME280;12992;50.884;13.668;2023-08-17T08:13:55;97659.88;;;24.42;100.00
24962;BME280;12992;50.884;13.668;2023-08-17T08:16:21;97657.84;;;24.51;100.00
24962;BME280;12992;50.884;13.668;2023-08-17T08:18:46;97651.53;;;24.42;100.00
24962;BME280;12992;50.884;13.668;2023-08-17T08:21:11;97642.63;;;24.19;100.00
24962;BME280;12992;50.884;13.668;2023-08-17T08:23:36;97638.59;;;24.38;100.00
24962;BME280;12992;50.884;13.668;2023-08-17T08:26:01;97629.63;;;24.95;100.00
24962;BME280;12992;50.884;13.668;2023-08-17T08:28:27;97621.69;;;25.38;95.76
24962;BME280;12992;50.884;13.668;2023-08-17T08:30:52;97615.75;;;25.52;92.38
24962;BME280;12992;50.884;13.668;2023-08-17T08:33:17;97618.28;;;25.33;96.01
24962;BME280;12992;50.884;13.668;2023-08-17T08:35:43;97608.13;;;25.16;94.08
24962;BME280;12992;50.884;13.668;2023-08-17T08:38:08;97609.28;;;25.03;96.54
24962;BME280;12992;50.884;13.668;2023-08-17T08:40:33;97613.19;;;25.80;92.73
24962;BME280;12992;50.884;13.668;2023-08-17T08:43:02;97622.19;;;26.91;90.04
24962;BME280;12992;50.884;13.668;2023-08-17T08:45:27;97620.84;;;28.55;80.86
24962;BME280;12992;50.884;13.668;2023-08-17T08:47:53;97613.22;;;30.21;74.18
24962;BME280;12992;50.884;13.668;2023-08-17T08:50:19;97605.50;;;30.40;72.98
24962;BME280;12992;50.884;13.668;2023-08-17T08:52:50;97599.63;;;30.23;72.58
24962;BME280;12992;50.884;13.668;2023-08-17T08:55:18;97600.53;;;30.87;68.39
24962;BME280;12992;50.884;13.668;2023-08-17T08:57:46;97600.06;;;31.18;69.42
24962;BME280;12992;50.884;13.668;2023-08-17T09:00:12;97588.38;;;30.23;71.04
24962;BME280;12992;50.884;13.668;2023-08-17T09:02:38;97591.69;;;29.79;71.92
24962;BME280;12992;50.884;13.668;2023-08-17T09:05:07;97585.59;;;30.00;69.85
24962;BME280;12992;50.884;13.668;2023-08-17T09:07:33;97584.09;;;30.62;68.46
24962;BME280;12992;50.884;13.668;2023-08-17T09:09:59;97578.72;;;30.77;68.40
24962;BME280;12992;50.884;13.668;2023-08-17T09:12:25;97577.50;;;31.89;65.69
24962;BME280;12992;50.884;13.668;2023-08-17T09:14:50;97573.84;;;31.81;65.60
24962;BME280;12992;50.884;13.668;2023-08-17T09:17:25;97579.59;;;31.55;68.58
24962;BME280;12992;50.884;13.668;2023-08-17T09:19:50;97560.25;;;30.49;69.86
24962;BME280;12992;50.884;13.668;2023-08-17T09:22:25;97564.53;;;30.66;67.11
24962;BME280;12992;50.884;13.668;2023-08-17T09:24:50;97543.72;;;30.44;68.41
24962;BME280;12992;50.884;13.668;2023-08-17T09:27:16;97543.09;;;29.52;70.23
24962;BME280;12992;50.884;13.668;2023-08-17T09:29:42;97553.03;;;29.95;69.58
24962;BME280;12992;50.884;13.668;2023-08-17T09:32:07;97554.31;;;30.28;69.54
24962;BME280;12992;50.884;13.668;2023-08-17T09:34:33;97549.53;;;31.22;68.90
24962;BME280;12992;50.884;13.668;2023-08-17T09:37:04;97538.84;;;31.82;66.24
24962;BME280;12992;50.884;13.668;2023-08-17T09:39:30;97534.09;;;31.97;63.34
24962;BME280;12992;50.884;13.668;2023-08-17T09:41:56;97530.81;;;31.44;66.77
24962;BME280;12992;50.884;13.668;2023-08-17T09:44:21;97533.84;;;31.24;65.64
24962;BME280;12992;50.884;13.668;2023-08-17T09:46:47;97544.38;;;33.07;63.01
24962;BME280;12992;50.884;13.668;2023-08-17T09:49:12;97538.78;;;33.35;63.18
24962;BME280;12992;50.884;13.668;2023-08-17T09:51:38;97528.28;;;33.29;60.97
24962;BME280;12992;50.884;13.668;2023-08-17T09:54:03;97549.97;;;34.78;60.29
24962;BME280;12992;50.884;13.668;2023-08-17T09:56:29;97538.19;;;36.12;58.56
24962;BME280;12992;50.884;13.668;2023-08-17T09:58:55;97536.41;;;36.28;55.36
24962;BME280;12992;50.884;13.668;2023-08-17T10:01:20;97530.28;;;36.30;54.28
24962;BME280;12992;50.884;13.668;2023-08-17T10:03:46;97528.56;;;36.77;56.91
24962;BME280;12992;50.884;13.668;2023-08-17T10:06:16;97518.94;;;36.34;56.86
24962;BME280;12992;50.884;13.668;2023-08-17T10:08:43;97515.66;;;36.39;55.81
24962;BME280;12992;50.884;13.668;2023-08-17T10:11:08;97510.03;;;37.00;52.30
24962;BME280;12992;50.884;13.668;2023-08-17T10:13:40;97500.09;;;37.15;54.39
24962;BME280;12992;50.884;13.668;2023-08-17T10:18:44;97490.16;;;36.69;53.02
24962;BME280;12992;50.884;13.668;2023-08-17T10:21:13;97494.13;;;36.75;57.84
24962;BME280;12992;50.884;13.668;2023-08-17T10:23:40;97491.31;;;37.06;54.67
24962;BME280;12992;50.884;13.668;2023-08-17T10:26:05;97481.28;;;36.67;56.01
24962;BME280;12992;50.884;13.668;2023-08-17T10:28:33;97478.44;;;36.33;55.90
24962;BME280;12992;50.884;13.668;2023-08-17T10:30:59;97470.38;;;36.62;54.83
24962;BME280;12992;50.884;13.668;2023-08-17T10:33:24;97462.72;;;35.84;56.00
24962;BME280;12992;50.884;13.668;2023-08-17T10:35:50;97469.28;;;35.73;56.86
24962;BME280;12992;50.884;13.668;2023-08-17T10:38:16;97454.25;;;35.32;57.97
24962;BME280;12992;50.884;13.668;2023-08-17T10:40:42;97451.16;;;35.12;57.15
24962;BME280;12992;50.884;13.668;2023-08-17T10:43:08;97450.06;;;35.51;56.94
24962;BME280;12992;50.884;13.668;2023-08-17T10:45:36;97436.13;;;34.52;58.12
24962;BME280;12992;50.884;13.668;2023-08-17T10:50:31;97430.66;;;34.02;58.38
24962;BME280;12992;50.884;13.668;2023-08-17T10:52:58;97432.44;;;35.29;57.88
24962;BME280;12992;50.884;13.668;2023-08-17T10:55:35;97434.03;;;35.30;58.59
24962;BME280;12992;50.884;13.668;2023-08-17T10:58:01;97420.53;;;35.93;54.90
24962;BME280;12992;50.884;13.668;2023-08-17T11:00:27;97422.41;;;34.51;59.03
24962;BME280;12992;50.884;13.668;2023-08-17T11:03:00;97438.09;;;35.29;58.93
24962;BME280;12992;50.884;13.668;2023-08-17T11:05:40;97419.78;;;34.85;57.47
24962;BME280;12992;50.884;13.668;2023-08-17T11:08:06;97406.50;;;33.34;60.39
24962;BME280;12992;50.884;13.668;2023-08-17T11:10:31;97419.13;;;32.17;62.80
24962;BME280;12992;50.884;13.668;2023-08-17T11:12:57;97421.84;;;31.41;64.43
24962;BME280;12992;50.884;13.668;2023-08-17T11:15:28;97424.28;;;30.64;66.59
24962;BME280;12992;50.884;13.668;2023-08-17T11:17:59;97409.81;;;29.95;67.52
24962;BME280;12992;50.884;13.668;2023-08-17T11:20:24;97406.13;;;29.12;69.65
24962;BME280;12992;50.884;13.668;2023-08-17T11:22:50;97414.19;;;28.71;69.90
24962;BME280;12992;50.884;13.668;2023-08-17T11:25:15;97411.47;;;29.70;66.72
24962;BME280;12992;50.884;13.668;2023-08-17T11:27:40;97402.00;;;30.11;64.97
24962;BME280;12992;50.884;13.668;2023-08-17T11:30:06;97397.44;;;29.70;63.56
24962;BME280;12992;50.884;13.668;2023-08-17T11:32:33;97401.34;;;30.22;64.41
24962;BME280;12992;50.884;13.668;2023-08-17T11:34:58;97390.66;;;30.71;60.71
24962;BME280;12992;50.884;13.668;2023-08-17T11:37:23;97395.41;;;32.29;58.83
24962;BME280;12992;50.884;13.668;2023-08-17T11:39:48;97390.38;;;33.59;56.29
24962;BME280;12992;50.884;13.668;2023-08-17T11:42:14;97384.28;;;33.75;54.37
24962;BME280;12992;50.884;13.668;2023-08-17T11:44:39;97377.47;;;33.44;54.38
24962;BME280;12992;50.884;13.668;2023-08-17T11:47:05;97372.22;;;33.53;53.58
24962;BME280;12992;50.884;13.668;2023-08-17T11:49:30;97362.53;;;32.86;53.14
24962;BME280;12992;50.884;13.668;2023-08-17T11:51:55;97369.59;;;32.23;54.64
24962;BME280;12992;50.884;13.668;2023-08-17T11:54:22;97372.63;;;33.19;53.39
24962;BME280;12992;50.884;13.668;2023-08-17T11:56:47;97387.38;;;34.20;51.07
24962;BME280;12992;50.884;13.668;2023-08-17T11:59:13;97385.75;;;34.99;50.42
24962;BME280;12992;50.884;13.668;2023-08-17T12:01:43;97386.88;;;34.35;50.74
24962;BME280;12992;50.884;13.668;2023-08-17T12:04:09;97394.41;;;33.08;61.33
24962;BME280;12992;50.884;13.668;2023-08-17T12:06:35;97381.56;;;31.95;64.98
24962;BME280;12992;50.884;13.668;2023-08-17T12:09:00;97390.56;;;31.01;68.78
24962;BME280;12992;50.884;13.668;2023-08-17T12:11:25;97393.94;;;31.80;67.37
24962;BME280;12992;50.884;13.668;2023-08-17T12:13:51;97371.81;;;33.08;63.51
24962;BME280;12992;50.884;13.668;2023-08-17T12:16:17;97372.25;;;33.14;62.51
24962;BME280;12992;50.884;13.668;2023-08-17T12:18:48;97381.72;;;32.27;66.42
24962;BME280;12992;50.884;13.668;2023-08-17T12:21:14;97378.56;;;31.67;67.90
24962;BME280;12992;50.884;13.668;2023-08-17T12:23:40;97385.91;;;30.76;70.65
24962;BME280;12992;50.884;13.668;2023-08-17T12:26:05;97399.78;;;30.28;73.33
24962;BME280;12992;50.884;13.668;2023-08-17T12:28:31;97390.66;;;30.04;70.37
24962;BME280;12992;50.884;13.668;2023-08-17T12:31:01;97386.13;;;30.63;70.99
24962;BME280;12992;50.884;13.668;2023-08-17T12:33:26;97368.03;;;31.53;65.84
24962;BME280;12992;50.884;13.668;2023-08-17T12:35:52;97367.72;;;31.65;63.88
24962;BME280;12992;50.884;13.668;2023-08-17T12:38:17;97367.59;;;32.17;66.88
24962;BME280;12992;50.884;13.668;2023-08-17T12:40:42;97364.97;;;33.13;58.77
24962;BME280;12992;50.884;13.668;2023-08-17T12:43:07;97361.84;;;35.04;54.01
24962;BME280;12992;50.884;13.668;2023-08-17T12:45:33;97337.97;;;35.05;54.40
24962;BME280;12992;50.884;13.668;2023-08-17T12:47:59;97347.81;;;34.86;53.55